Time;durP1;ratioP1;P1;durP2;ratioP2;P2;SDS_P1;SDS_P2;PMS_P1;PMS_P2;Temp;Humidity;BMP_temperature;BMP_pressure;BME280_temperature;BME280_humidity;BME280_pressure;Samples;Min_cycle;Max_cycle;Signal;HPM_P1;HPM_P2
2021/06/12 00:00:35;;;;;;;7.97;5.07;;;17.20;99.90;;;;;;4351978;32;20073;-81
2021/06/12 00:03:02;;;;;;;6.97;5.10;;;17.20;99.90;;;;;;4364797;32;20086;-77
2021/06/12 00:05:28;;;;;;;9.10;5.12;;;17.20;99.90;;;;;;4336862;32;20093;-80
2021/06/12 00:07:55;;;;;;;7.97;5.57;;;17.20;99.90;;;;;;4352553;32;20082;-79
2021/06/12 00:10:41;;;;;;;9.02;5.90;;;17.10;99.90;;;;;;4366837;32;20078;-80
2021/06/12 00:13:08;;;;;;;12.02;5.85;;;17.10;99.90;;;;;;4366941;32;20082;-78
2021/06/12 00:15:34;;;;;;;7.72;5.53;;;17.20;99.90;;;;;;4338604;32;20093;-79
2021/06/12 00:18:00;;;;;;;9.48;5.85;;;17.00;99.90;;;;;;4349248;32;20071;-78
2021/06/12 00:20:29;;;;;;;7.97;6.00;;;16.90;99.90;;;;;;4361696;32;20586;-80
2021/06/12 00:22:56;;;;;;;9.43;7.20;;;17.00;99.90;;;;;;4349154;32;20137;-81
2021/06/12 00:25:26;;;;;;;7.93;6.22;;;16.80;99.90;;;;;;4348946;32;20071;-79
2021/06/12 00:28:00;;;;;;;8.55;7.15;;;16.90;99.90;;;;;;4348519;32;20183;-81
2021/06/12 00:30:27;;;;;;;8.40;6.20;;;16.80;99.90;;;;;;4365358;32;20128;-78
2021/06/12 00:32:54;;;;;;;10.25;7.10;;;16.80;99.90;;;;;;4339454;32;20077;-78
2021/06/12 00:35:20;;;;;;;9.20;6.80;;;16.70;99.90;;;;;;4363593;32;20074;-78
2021/06/12 00:37:46;;;;;;;8.88;7.72;;;16.80;99.90;;;;;;4350072;32;20077;-80
2021/06/12 00:40:14;;;;;;;7.45;6.53;;;16.70;99.90;;;;;;4336147;32;20587;-80
2021/06/12 00:42:40;;;;;;;8.75;6.57;;;16.70;99.90;;;;;;4336181;32;20493;-80
2021/06/12 00:45:12;;;;;;;8.00;5.93;;;16.90;99.90;;;;;;4336660;32;20170;-80
2021/06/12 00:47:38;;;;;;;6.57;4.87;;;16.90;99.90;;;;;;4350266;32;20085;-77
2021/06/12 00:50:07;;;;;;;7.43;5.43;;;16.80;99.90;;;;;;4337539;32;20070;-78
2021/06/12 00:52:33;;;;;;;6.07;5.22;;;16.80;99.90;;;;;;4324396;32;20082;-78
2021/06/12 00:54:59;;;;;;;7.05;5.28;;;16.70;99.90;;;;;;4361188;32;20070;-78
2021/06/12 00:57:25;;;;;;;6.65;5.07;;;16.70;99.90;;;;;;4336474;32;20081;-74
2021/06/12 00:59:52;;;;;;;6.95;5.28;;;16.70;99.90;;;;;;4337697;32;20097;-77
2021/06/12 01:02:18;;;;;;;6.70;5.68;;;16.70;99.90;;;;;;4327650;32;20429;-79
2021/06/12 01:04:44;;;;;;;6.07;4.75;;;16.70;99.90;;;;;;4364373;32;20156;-78
2021/06/12 01:07:10;;;;;;;6.55;5.22;;;16.80;99.90;;;;;;4337205;32;20082;-79
2021/06/12 01:09:36;;;;;;;7.60;5.37;;;16.80;99.90;;;;;;4349295;32;20096;-79
2021/06/12 01:12:05;;;;;;;6.05;5.07;;;16.70;99.90;;;;;;4360609;32;20085;-77
2021/06/12 01:14:33;;;;;;;6.45;4.85;;;16.60;99.90;;;;;;4347781;32;20577;-78
2021/06/12 01:17:12;;;;;;;9.00;5.22;;;16.60;99.90;;;;;;4360780;32;20517;-78
2021/06/12 01:19:49;;;;;;;7.20;5.32;;;16.60;99.90;;;;;;4360759;32;20058;-80
2021/06/12 01:22:47;;;;;;;7.25;5.68;;;16.60;99.90;;;;;;4360784;32;20090;-79
2021/06/12 01:25:56;;;;;;;6.97;5.75;;;16.60;99.90;;;;;;4358493;32;20105;-77
2021/06/12 01:28:46;;;;;;;8.38;6.07;;;16.70;99.90;;;;;;4348372;32;20162;-75
2021/06/12 01:31:12;;;;;;;9.25;6.78;;;16.60;99.90;;;;;;4373450;32;20077;-77
2021/06/12 01:33:39;;;;;;;8.02;6.50;;;16.60;99.90;;;;;;4350859;32;20093;-79
2021/06/12 01:36:06;;;;;;;7.60;6.35;;;16.60;99.90;;;;;;4335285;32;20465;-78
2021/06/12 01:38:34;;;;;;;8.23;7.07;;;16.60;99.90;;;;;;4347665;32;20073;-79
2021/06/12 01:41:03;;;;;;;7.50;6.00;;;16.50;99.90;;;;;;4335785;32;20163;-77
2021/06/12 01:43:32;;;;;;;7.10;6.37;;;16.50;99.90;;;;;;4335940;32;20083;-77
2021/06/12 01:45:58;;;;;;;7.75;6.37;;;16.40;99.90;;;;;;4348193;32;20074;-78
2021/06/12 01:48:24;;;;;;;7.53;5.95;;;16.50;99.90;;;;;;4347936;32;20067;-76
2021/06/12 01:50:50;;;;;;;8.07;6.25;;;16.60;99.90;;;;;;4335329;32;20533;-77
2021/06/12 01:53:18;;;;;;;8.80;6.07;;;16.70;99.90;;;;;;4323958;32;20513;-76
2021/06/12 01:55:45;;;;;;;7.40;6.55;;;16.70;99.90;;;;;;4336147;32;20175;-77
2021/06/12 01:58:20;;;;;;;9.32;6.37;;;16.60;99.90;;;;;;4323941;32;20505;-78
2021/06/12 02:00:46;;;;;;;8.48;6.00;;;16.60;99.90;;;;;;4324262;32;20057;-77
2021/06/12 02:03:13;;;;;;;8.07;6.28;;;16.60;99.90;;;;;;4323848;32;20074;-79
2021/06/12 02:05:40;;;;;;;7.43;5.43;;;16.70;99.90;;;;;;4322641;32;20141;-79
2021/06/12 02:08:06;;;;;;;8.38;4.97;;;16.70;99.90;;;;;;4347751;32;20067;-78
2021/06/12 02:10:33;;;;;;;7.43;4.90;;;16.80;99.90;;;;;;4338112;32;20088;-78
2021/06/12 02:12:59;;;;;;;6.68;5.15;;;16.90;99.90;;;;;;4362752;32;20073;-78
2021/06/12 02:15:27;;;;;;;7.62;4.35;;;16.70;99.90;;;;;;4350541;32;20074;-78
2021/06/12 02:17:55;;;;;;;6.22;4.97;;;16.80;99.90;;;;;;4362254;32;20143;-79
2021/06/12 02:20:21;;;;;;;6.28;4.78;;;16.70;99.90;;;;;;4350306;32;20089;-77
2021/06/12 02:22:50;;;;;;;8.25;5.10;;;16.90;99.90;;;;;;4362571;32;20441;-79
2021/06/12 02:25:17;;;;;;;6.35;4.75;;;17.00;99.90;;;;;;4337927;32;20217;-77
2021/06/12 02:27:51;;;;;;;6.50;5.10;;;17.00;99.90;;;;;;4362707;32;20069;-78
2021/06/12 02:30:22;;;;;;;6.12;4.80;;;17.10;99.90;;;;;;4335848;32;20239;-78
2021/06/12 02:32:54;;;;;;;5.68;4.55;;;17.20;99.90;;;;;;4335570;32;20074;-77
2021/06/12 02:35:20;;;;;;;6.03;4.85;;;17.10;99.90;;;;;;4338736;32;20552;-75
2021/06/12 02:37:46;;;;;;;6.87;4.70;;;17.00;99.90;;;;;;4335509;32;20089;-78
2021/06/12 02:40:13;;;;;;;7.37;4.65;;;17.10;99.90;;;;;;4335471;32;20536;-75
2021/06/12 02:42:39;;;;;;;7.20;5.35;;;17.00;99.90;;;;;;4347603;32;20066;-78
2021/06/12 02:45:07;;;;;;;8.23;4.78;;;17.00;99.90;;;;;;4347234;32;20569;-77
2021/06/12 02:47:48;;;;;;;6.40;4.87;;;17.10;99.90;;;;;;4335860;32;20055;-77
2021/06/12 02:50:14;;;;;;;9.13;4.70;;;17.10;99.90;;;;;;4335326;32;20070;-77
2021/06/12 02:52:41;;;;;;;5.80;4.40;;;17.10;99.90;;;;;;4337755;32;20505;-77
2021/06/12 02:55:09;;;;;;;5.68;4.45;;;17.20;99.90;;;;;;4362398;32;20162;-77
2021/06/12 02:57:37;;;;;;;5.93;4.43;;;17.20;99.90;;;;;;4362920;32;20086;-77
2021/06/12 03:00:05;;;;;;;6.30;3.97;;;17.30;99.90;;;;;;4338247;32;20067;-74
2021/06/12 03:02:32;;;;;;;7.20;4.00;;;17.40;99.90;;;;;;4326140;32;20082;-76
2021/06/12 03:04:58;;;;;;;5.65;4.47;;;17.40;99.90;;;;;;4325598;32;20437;-79
2021/06/12 03:07:24;;;;;;;7.37;4.55;;;17.60;99.90;;;;;;4337950;32;20139;-76
2021/06/12 03:09:51;;;;;;;6.28;4.28;;;17.70;99.90;;;;;;4367375;32;20066;-79
2021/06/12 03:12:17;;;;;;;6.30;4.32;;;17.60;99.90;;;;;;4352501;32;20078;-79
2021/06/12 03:14:43;;;;;;;5.32;4.35;;;17.50;99.90;;;;;;4352385;32;20133;-79
2021/06/12 03:17:10;;;;;;;6.18;4.60;;;17.60;99.90;;;;;;4353408;32;20077;-78
2021/06/12 03:19:36;;;;;;;5.37;4.35;;;17.80;99.90;;;;;;4340252;32;20101;-79
2021/06/12 03:22:03;;;;;;;7.97;4.50;;;17.80;99.90;;;;;;4352896;32;20154;-79
2021/06/12 03:24:29;;;;;;;5.62;4.30;;;18.00;99.90;;;;;;4364698;32;20140;-78
2021/06/12 03:26:59;;;;;;;5.78;4.62;;;18.10;99.90;;;;;;4340025;32;20088;-79
2021/06/12 03:29:27;;;;;;;6.70;4.50;;;18.00;99.90;;;;;;4350398;32;20123;-77
2021/06/12 03:31:54;;;;;;;7.70;5.18;;;18.20;99.90;;;;;;4337698;32;20145;-77
2021/06/12 03:34:20;;;;;;;7.35;5.35;;;18.30;99.90;;;;;;4337550;32;20071;-76
2021/06/12 03:36:46;;;;;;;9.07;5.40;;;18.40;99.90;;;;;;4342410;32;20090;-78
2021/06/12 03:39:12;;;;;;;8.88;6.18;;;18.70;99.90;;;;;;4349312;32;20085;-79
2021/06/12 03:41:38;;;;;;;9.48;6.60;;;18.80;99.90;;;;;;4325555;32;20081;-79
2021/06/12 03:44:05;;;;;;;8.52;6.28;;;18.90;99.90;;;;;;4349521;32;20089;-79
2021/06/12 03:46:31;;;;;;;10.88;6.20;;;18.70;99.90;;;;;;4349800;32;20077;-78
2021/06/12 03:48:57;;;;;;;9.85;6.43;;;18.90;99.90;;;;;;4362095;32;20066;-80
2021/06/12 03:51:23;;;;;;;10.15;8.07;;;18.90;99.90;;;;;;4325223;32;20141;-78
2021/06/12 03:53:50;;;;;;;12.52;8.13;;;18.80;99.90;;;;;;4324648;32;20074;-79
2021/06/12 03:56:19;;;;;;;9.82;7.20;;;19.10;99.90;;;;;;4325004;32;20081;-79
2021/06/12 03:58:47;;;;;;;13.82;8.63;;;19.40;99.90;;;;;;4337627;32;20090;-79
2021/06/12 04:01:16;;;;;;;14.90;9.63;;;19.60;99.90;;;;;;4350000;32;20065;-79
2021/06/12 04:03:43;;;;;;;13.45;8.10;;;19.60;99.90;;;;;;4337021;32;20512;-79
2021/06/12 04:06:09;;;;;;;8.75;6.50;;;19.50;99.90;;;;;;4337090;32;20081;-79
2021/06/12 04:08:36;;;;;;;10.52;6.75;;;19.90;99.90;;;;;;4337239;32;20153;-80
2021/06/12 04:11:03;;;;;;;10.10;6.68;;;20.00;99.90;;;;;;4348725;32;20455;-77
2021/06/12 04:13:29;;;;;;;7.62;5.90;;;20.00;99.90;;;;;;4339610;32;20097;-79
2021/06/12 04:15:55;;;;;;;9.80;6.85;;;19.90;99.90;;;;;;4363959;32;20082;-79
2021/06/12 04:18:22;;;;;;;7.82;6.20;;;20.20;99.90;;;;;;4351261;32;20086;-79
2021/06/12 04:20:48;;;;;;;11.65;6.65;;;20.10;99.90;;;;;;4363515;32;20155;-78
2021/06/12 04:23:14;;;;;;;9.50;5.35;;;20.10;99.90;;;;;;4341146;32;20141;-78
2021/06/12 04:25:40;;;;;;;7.93;4.97;;;20.40;99.90;;;;;;4351625;32;20449;-80
2021/06/12 04:28:07;;;;;;;8.27;5.18;;;20.80;99.90;;;;;;4351666;32;20159;-78
2021/06/12 04:30:33;;;;;;;8.52;5.90;;;21.40;99.90;;;;;;4376321;32;20082;-79
2021/06/12 04:33:01;;;;;;;6.95;5.00;;;21.20;99.90;;;;;;4351707;32;20078;-79
2021/06/12 04:35:28;;;;;;;8.00;4.25;;;21.20;99.90;;;;;;4375726;32;20082;-78
2021/06/12 04:37:58;;;;;;;7.07;3.97;;;21.60;99.90;;;;;;4337134;32;20074;-77
2021/06/12 04:40:28;;;;;;;3.97;3.25;;;21.60;99.90;;;;;;4349005;32;20078;-76
2021/06/12 04:42:55;;;;;;;4.55;3.05;;;21.50;99.90;;;;;;4337646;32;20093;-79
2021/06/12 04:45:21;;;;;;;5.80;4.43;;;21.60;99.90;;;;;;4348486;32;20101;-78
2021/06/12 04:47:48;;;;;;;6.65;4.35;;;20.80;99.90;;;;;;4336856;32;20167;-76
2021/06/12 04:50:14;;;;;;;9.00;6.57;;;21.00;99.90;;;;;;4348337;32;20090;-78
2021/06/12 04:52:40;;;;;;;8.10;6.50;;;20.80;99.90;;;;;;4348401;32;20082;-79
2021/06/12 04:55:08;;;;;;;9.05;5.60;;;21.00;99.90;;;;;;4348539;32;20089;-77
2021/06/12 04:57:34;;;;;;;8.77;5.05;;;21.60;99.90;;;;;;4336516;32;20066;-76
2021/06/12 05:00:01;;;;;;;9.20;6.20;;;23.00;99.90;;;;;;4348263;32;20066;-78
2021/06/12 05:02:27;;;;;;;11.35;7.53;;;22.00;99.90;;;;;;4348357;32;20086;-77
2021/06/12 05:04:53;;;;;;;12.00;7.05;;;22.40;99.90;;;;;;4348172;32;20175;-77
2021/06/12 05:07:19;;;;;;;11.25;7.20;;;22.90;99.90;;;;;;4348748;32;20148;-77
2021/06/12 05:09:45;;;;;;;10.02;7.15;;;23.70;99.90;;;;;;4360753;32;20077;-76
2021/06/12 05:12:12;;;;;;;14.10;8.18;;;22.50;99.90;;;;;;4360675;32;20059;-76
2021/06/12 05:14:38;;;;;;;29.75;17.35;;;22.60;99.90;;;;;;4360476;32;20147;-77
2021/06/12 05:17:09;;;;;;;20.95;11.98;;;22.60;99.90;;;;;;4348170;32;20070;-77
2021/06/12 05:19:35;;;;;;;12.75;6.97;;;23.20;99.90;;;;;;4349025;32;20070;-79
2021/06/12 05:22:02;;;;;;;8.98;6.70;;;23.40;99.90;;;;;;4335818;32;20157;-79
2021/06/12 05:24:28;;;;;;;10.35;6.20;;;22.20;99.90;;;;;;4360413;32;20153;-75
2021/06/12 05:26:54;;;;;;;7.62;5.18;;;22.60;99.90;;;;;;4336051;32;20074;-80
2021/06/12 05:29:20;;;;;;;6.15;5.05;;;21.30;99.90;;;;;;4337957;32;20058;-77
2021/06/12 05:31:47;;;;;;;7.62;4.68;;;21.00;99.90;;;;;;4350411;32;20460;-79
2021/06/12 05:34:13;;;;;;;9.10;4.97;;;20.90;99.90;;;;;;4362989;32;20534;-78
2021/06/12 05:36:39;;;;;;;6.05;4.85;;;21.00;99.90;;;;;;4347802;32;20086;-79
2021/06/12 05:39:05;;;;;;;5.90;4.00;;;20.90;99.90;;;;;;4348019;32;20047;-76
2021/06/12 05:41:32;;;;;;;10.57;5.65;;;21.10;99.90;;;;;;4360291;32;20082;-77
2021/06/12 05:43:58;;;;;;;6.55;5.00;;;21.10;99.90;;;;;;4348033;32;20065;-79
2021/06/12 05:46:24;;;;;;;5.22;4.05;;;21.10;99.90;;;;;;4348263;32;20079;-77
2021/06/12 05:48:50;;;;;;;8.93;5.93;;;21.30;99.90;;;;;;4335974;32;20169;-77
2021/06/12 05:51:16;;;;;;;6.18;4.18;;;21.30;99.90;;;;;;4347886;32;20070;-76
2021/06/12 05:53:42;;;;;;;7.75;5.20;;;21.20;99.90;;;;;;4360105;32;20075;-77
2021/06/12 05:56:09;;;;;;;6.28;4.12;;;20.90;99.90;;;;;;4360136;32;20163;-77
2021/06/12 05:58:35;;;;;;;7.25;5.10;;;22.20;99.90;;;;;;4335764;32;20082;-79
2021/06/12 06:01:01;;;;;;;5.93;4.45;;;22.20;99.90;;;;;;4335709;32;20257;-79
2021/06/12 06:03:27;;;;;;;4.97;3.80;;;21.90;99.90;;;;;;4335876;32;20139;-79
2021/06/12 06:05:53;;;;;;;6.03;4.07;;;21.70;99.90;;;;;;4360135;32;20163;-79
2021/06/12 06:08:20;;;;;;;6.37;4.80;;;21.60;99.90;;;;;;4348511;32;20073;-77
2021/06/12 06:10:46;;;;;;;7.20;4.78;;;21.50;99.90;;;;;;4372791;32;20544;-77
2021/06/12 06:13:12;;;;;;;9.65;4.93;;;21.70;99.90;;;;;;4375203;32;20078;-78
2021/06/12 06:15:38;;;;;;;6.15;5.05;;;21.70;99.90;;;;;;4374572;32;20512;-79
2021/06/12 06:18:04;;;;;;;5.07;4.45;;;21.70;99.90;;;;;;4351074;32;20089;-78
2021/06/12 06:20:31;;;;;;;5.53;3.45;;;22.10;99.90;;;;;;4338019;32;20069;-77
2021/06/12 06:22:57;;;;;;;6.90;4.65;;;22.70;99.90;;;;;;4375031;32;20141;-79
2021/06/12 06:25:23;;;;;;;6.30;4.32;;;22.80;99.90;;;;;;4363039;32;20070;-78
2021/06/12 06:27:50;;;;;;;5.80;4.82;;;22.80;99.90;;;;;;4353154;32;20066;-76
2021/06/12 06:30:17;;;;;;;6.95;4.95;;;21.70;99.90;;;;;;4345478;32;20096;-78
2021/06/12 06:32:46;;;;;;;4.68;3.92;;;21.70;99.90;;;;;;4363412;32;20078;-77
2021/06/12 06:35:14;;;;;;;11.48;4.93;;;22.90;99.90;;;;;;4363113;32;20175;-78
2021/06/12 06:37:42;;;;;;;7.60;4.07;;;22.80;99.90;;;;;;4349294;32;20077;-79
2021/06/12 06:40:09;;;;;;;6.85;3.65;;;22.40;99.90;;;;;;4350803;32;20094;-78
2021/06/12 06:42:35;;;;;;;7.10;4.68;;;22.70;99.90;;;;;;4338626;32;20062;-79
2021/06/12 06:45:03;;;;;;;9.05;5.50;;;22.10;99.90;;;;;;4350631;32;20452;-78
2021/06/12 06:47:30;;;;;;;6.87;4.70;;;21.60;99.90;;;;;;4338247;32;20597;-77
2021/06/12 06:49:56;;;;;;;8.27;4.20;;;21.40;99.90;;;;;;4350638;32;20067;-79
2021/06/12 06:52:22;;;;;;;4.78;3.78;;;21.90;99.90;;;;;;4338613;32;20067;-79
2021/06/12 06:54:49;;;;;;;5.43;3.78;;;22.10;99.90;;;;;;4337923;32;20542;-78
2021/06/12 06:57:15;;;;;;;6.47;3.60;;;22.90;99.90;;;;;;4338392;32;20081;-79
2021/06/12 06:59:41;;;;;;;5.82;4.45;;;22.10;99.90;;;;;;4350435;32;20086;-79
2021/06/12 07:02:08;;;;;;;7.03;4.03;;;22.00;99.90;;;;;;4326171;32;20063;-78
2021/06/12 07:04:37;;;;;;;6.82;3.50;;;21.80;99.90;;;;;;4352261;32;20093;-79
2021/06/12 07:07:07;;;;;;;5.00;3.37;;;21.70;99.90;;;;;;4329562;32;20084;-77
2021/06/12 07:09:33;;;;;;;7.10;3.80;;;22.20;99.90;;;;;;4328781;32;20138;-79
2021/06/12 07:12:04;;;;;;;5.50;3.70;;;22.40;99.90;;;;;;4340462;32;20071;-76
2021/06/12 07:14:31;;;;;;;5.03;3.78;;;22.60;99.90;;;;;;4341387;32;20074;-77
2021/06/12 07:16:57;;;;;;;5.40;4.18;;;23.00;99.90;;;;;;4340952;32;20093;-78
2021/06/12 07:19:23;;;;;;;6.50;4.22;;;22.70;99.90;;;;;;4353905;32;20074;-77
2021/06/12 07:21:50;;;;;;;7.60;4.70;;;22.30;99.90;;;;;;4330074;32;20166;-77
2021/06/12 07:24:16;;;;;;;5.97;4.25;;;22.20;99.90;;;;;;4367587;32;20086;-79
2021/06/12 07:26:43;;;;;;;6.05;4.37;;;22.60;99.90;;;;;;4354444;32;20081;-77
2021/06/12 07:29:10;;;;;;;5.93;4.20;;;23.70;99.90;;;;;;4342799;32;20081;-77
2021/06/12 07:31:38;;;;;;;7.80;4.43;;;22.90;99.90;;;;;;4355417;32;20078;-78
2021/06/12 07:34:05;;;;;;;5.28;3.92;;;22.70;99.90;;;;;;4355847;32;20082;-77
2021/06/12 07:36:32;;;;;;;4.40;4.00;;;22.90;99.90;;;;;;4385047;32;20142;-75
2021/06/12 07:38:58;;;;;;;4.70;3.83;;;22.50;99.90;;;;;;4368697;32;20076;-78
2021/06/12 07:41:25;;;;;;;5.03;3.60;;;22.60;99.90;;;;;;4370938;32;20073;-77
2021/06/12 07:43:51;;;;;;;5.82;3.20;;;22.60;99.90;;;;;;4382571;32;20169;-77
2021/06/12 07:46:18;;;;;;;4.35;3.70;;;23.00;99.90;;;;;;4380113;32;20080;-77
2021/06/12 07:48:44;;;;;;;5.62;3.60;;;22.70;99.90;;;;;;4358108;32;20081;-79
2021/06/12 07:51:10;;;;;;;5.28;3.15;;;22.50;99.90;;;;;;4356328;32;20158;-79
2021/06/12 07:53:37;;;;;;;4.40;3.40;;;22.50;99.90;;;;;;4367742;32;20530;-80
2021/06/12 07:56:03;;;;;;;6.72;3.97;;;22.40;99.90;;;;;;4381386;32;20074;-77
2021/06/12 07:58:30;;;;;;;7.68;3.85;;;22.50;99.90;;;;;;4383114;32;20588;-79
2021/06/12 08:00:56;;;;;;;5.25;3.60;;;22.50;99.90;;;;;;4343004;32;20165;-80
2021/06/12 08:03:22;;;;;;;6.28;4.00;;;22.70;99.90;;;;;;4354620;32;20074;-79
2021/06/12 08:05:49;;;;;;;4.72;3.30;;;23.10;99.90;;;;;;4366468;32;20149;-78
2021/06/12 08:08:15;;;;;;;6.43;3.75;;;22.40;99.90;;;;;;4367470;32;20153;-79
2021/06/12 08:10:42;;;;;;;5.72;3.60;;;22.40;99.90;;;;;;4325522;32;20117;-76
2021/06/12 08:13:08;;;;;;;5.07;3.40;;;22.70;99.90;;;;;;4340193;32;20159;-78
2021/06/12 08:15:34;;;;;;;4.72;3.58;;;22.90;99.90;;;;;;4339533;32;20509;-80
2021/06/12 08:18:01;;;;;;;5.22;3.47;;;23.10;99.90;;;;;;4327418;32;20146;-78
2021/06/12 08:20:27;;;;;;;5.75;3.75;;;22.40;99.90;;;;;;4351417;32;20513;-78
2021/06/12 08:22:54;;;;;;;5.72;3.60;;;22.40;99.90;;;;;;4339612;32;20166;-79
2021/06/12 08:25:20;;;;;;;6.68;3.80;;;22.40;99.90;;;;;;4339139;32;20090;-78
2021/06/12 08:27:46;;;;;;;4.87;3.58;;;22.80;99.90;;;;;;4351882;32;20070;-79
2021/06/12 08:30:13;;;;;;;4.12;3.40;;;22.40;99.90;;;;;;4339528;32;20074;-78
2021/06/12 08:32:40;;;;;;;7.90;3.80;;;22.90;99.90;;;;;;4339325;32;20093;-77
2021/06/12 08:35:07;;;;;;;4.57;3.25;;;22.80;99.90;;;;;;4326643;32;20468;-77
2021/06/12 08:37:34;;;;;;;5.12;3.85;;;23.10;99.90;;;;;;4361159;32;20093;-79
2021/06/12 08:40:01;;;;;;;5.30;3.70;;;22.60;99.90;;;;;;4351772;32;20582;-77
2021/06/12 08:42:27;;;;;;;5.90;3.45;;;22.40;99.90;;;;;;4351433;32;20575;-77
2021/06/12 08:44:56;;;;;;;4.75;3.62;;;22.70;99.90;;;;;;4363832;32;20062;-78
2021/06/12 08:47:22;;;;;;;4.20;3.40;;;23.00;99.90;;;;;;4364543;32;20073;-78
2021/06/12 08:49:49;;;;;;;4.75;3.45;;;22.90;99.90;;;;;;4339105;32;20067;-78
2021/06/12 08:52:15;;;;;;;5.35;3.33;;;23.30;99.90;;;;;;4363514;32;20090;-79
2021/06/12 08:54:42;;;;;;;5.12;3.42;;;22.80;99.90;;;;;;4351367;32;20089;-77
2021/06/12 08:57:12;;;;;;;6.05;3.53;;;22.50;99.90;;;;;;4351263;32;20149;-78
2021/06/12 08:59:38;;;;;;;4.00;3.42;;;22.30;99.90;;;;;;4338569;32;20554;-76
2021/06/12 09:02:05;;;;;;;5.75;3.33;;;22.70;99.90;;;;;;4351208;32;20082;-77
2021/06/12 09:04:44;;;;;;;5.15;3.20;;;22.90;99.90;;;;;;4351163;32;20250;-78
2021/06/12 09:07:28;;;;;;;4.85;3.10;;;23.20;99.90;;;;;;4352307;32;20082;-77
2021/06/12 09:09:58;;;;;;;5.55;3.50;;;22.80;99.90;;;;;;4365367;32;20165;-79
2021/06/12 09:12:47;;;;;;;6.53;3.70;;;23.00;99.90;;;;;;4338573;32;20445;-76
2021/06/12 09:15:16;;;;;;;4.05;3.28;;;22.80;99.90;;;;;;4338639;32;20211;-77
2021/06/12 09:17:48;;;;;;;4.43;3.25;;;22.70;99.90;;;;;;4350503;32;20175;-78
2021/06/12 09:20:39;;;;;;;3.97;2.97;;;23.10;99.90;;;;;;4351318;32;20166;-77
2021/06/12 09:23:15;;;;;;;5.18;3.20;;;23.90;99.90;;;;;;4343725;32;20549;-79
2021/06/12 09:25:45;;;;;;;4.32;3.00;;;24.00;99.90;;;;;;4326967;32;20081;-79
2021/06/12 09:28:11;;;;;;;6.65;3.53;;;24.90;99.90;;;;;;4326761;32;20159;-79
2021/06/12 09:30:38;;;;;;;5.60;3.65;;;24.40;99.90;;;;;;4333570;32;20084;-77
2021/06/12 09:33:04;;;;;;;4.25;3.20;;;23.50;99.90;;;;;;4341119;32;20065;-79
2021/06/12 09:35:42;;;;;;;6.97;3.42;;;23.60;99.90;;;;;;4391749;32;20061;-77
2021/06/12 09:38:32;;;;;;;6.43;3.75;;;24.70;99.90;;;;;;4350691;32;20141;-78
2021/06/12 09:40:58;;;;;;;4.35;3.58;;;24.50;99.90;;;;;;4327447;32;20158;-79
2021/06/12 09:43:32;;;;;;;7.25;4.15;;;24.20;99.90;;;;;;4351407;32;20164;-78
2021/06/12 09:45:59;;;;;;;7.75;4.12;;;23.60;99.90;;;;;;4326515;32;20481;-81
2021/06/12 09:48:26;;;;;;;6.43;5.65;;;23.90;99.90;;;;;;4326956;32;20094;-78
2021/06/12 09:51:15;;;;;;;8.23;4.47;;;24.00;99.90;;;;;;4338127;32;20073;-79
2021/06/12 09:53:56;;;;;;;4.75;3.87;;;24.40;99.90;;;;;;4338992;32;20085;-79
2021/06/12 09:56:24;;;;;;;6.03;3.97;;;25.30;99.90;;;;;;4338421;32;20081;-78
2021/06/12 09:58:54;;;;;;;4.75;4.25;;;25.20;99.90;;;;;;4350865;32;20488;-78
2021/06/12 10:01:23;;;;;;;7.65;4.15;;;24.60;99.90;;;;;;4338517;32;20066;-79
2021/06/12 10:03:51;;;;;;;7.35;4.18;;;24.90;99.90;;;;;;4350834;32;20504;-79
2021/06/12 10:06:24;;;;;;;6.70;5.00;;;24.80;99.90;;;;;;4338149;32;20082;-80
2021/06/12 10:08:52;;;;;;;6.40;4.85;;;24.40;99.90;;;;;;4363309;32;20142;-79
2021/06/12 10:11:26;;;;;;;7.80;4.80;;;23.50;99.90;;;;;;4340168;32;20077;-78
2021/06/12 10:13:54;;;;;;;5.75;4.40;;;24.00;99.90;;;;;;4339783;32;20074;-77
2021/06/12 10:16:20;;;;;;;6.03;3.67;;;24.00;99.90;;;;;;4326326;32;20082;-79
2021/06/12 10:18:47;;;;;;;5.20;4.10;;;24.30;99.90;;;;;;4325890;32;20149;-79
2021/06/12 10:21:15;;;;;;;6.93;4.30;;;24.30;99.90;;;;;;4338185;32;20074;-80
2021/06/12 10:23:43;;;;;;;7.68;4.62;;;23.90;99.90;;;;;;4337713;32;20537;-80
2021/06/12 10:26:10;;;;;;;8.27;5.80;;;23.90;99.90;;;;;;4337995;32;20096;-78
2021/06/12 10:28:37;;;;;;;8.52;5.10;;;23.30;99.90;;;;;;4350037;32;20077;-79
2021/06/12 10:31:09;;;;;;;10.07;5.57;;;23.00;99.90;;;;;;4338237;32;20081;-78
2021/06/12 10:33:35;;;;;;;7.20;5.18;;;22.90;99.90;;;;;;4338230;32;20505;-79
2021/06/12 10:36:15;;;;;;;10.95;5.68;;;22.50;99.90;;;;;;4326346;32;20073;-77
2021/06/12 10:38:42;;;;;;;10.50;5.37;;;22.50;99.90;;;;;;4362874;32;20101;-76
2021/06/12 10:41:17;;;;;;;7.70;5.53;;;22.60;99.90;;;;;;4338170;32;20098;-76
2021/06/12 10:43:44;;;;;;;8.43;4.97;;;22.50;99.90;;;;;;4325956;32;20085;-78
2021/06/12 10:46:12;;;;;;;11.25;6.12;;;22.40;99.90;;;;;;4350168;32;20105;-79
2021/06/12 10:48:52;;;;;;;12.93;7.87;;;21.50;99.90;;;;;;4338286;32;20079;-76
2021/06/12 10:51:28;;;;;;;11.55;7.90;;;21.10;99.90;;;;;;4338520;32;20062;-80
2021/06/12 10:54:10;;;;;;;11.15;8.18;;;20.70;99.90;;;;;;4362625;32;20164;-78
2021/06/12 10:56:39;;;;;;;13.70;8.63;;;20.70;99.90;;;;;;4376590;32;20501;-78
2021/06/12 10:59:05;;;;;;;12.95;8.32;;;20.90;99.90;;;;;;4338369;32;20171;-77
2021/06/12 11:01:32;;;;;;;10.98;7.75;;;20.30;99.90;;;;;;4327052;32;20080;-78
2021/06/12 11:04:11;;;;;;;13.23;8.65;;;20.30;99.90;;;;;;4337872;32;20066;-79
2021/06/12 11:06:48;;;;;;;9.80;7.65;;;20.40;99.90;;;;;;4351917;32;20090;-78
2021/06/12 11:09:18;;;;;;;13.98;8.50;;;20.50;99.90;;;;;;4363652;32;20063;-79
2021/06/12 11:11:51;;;;;;;9.15;8.02;;;20.90;99.90;;;;;;4374885;32;20074;-78
2021/06/12 11:14:23;;;;;;;11.48;8.07;;;20.90;99.90;;;;;;4352439;32;20077;-78
2021/06/12 11:17:10;;;;;;;10.75;8.52;;;21.00;99.90;;;;;;4378534;32;20074;-75
2021/06/12 11:19:36;;;;;;;;;;;20.80;99.90;;;;;;4366254;32;20068;-75
2021/06/12 11:22:35;;;;;;;;;;;20.80;99.90;;;;;;4352861;32;20067;-77
2021/06/12 11:25:08;;;;;;;9.63;7.10;;;21.10;99.90;;;;;;4379452;32;20038;-74
2021/06/12 11:27:36;;;;;;;10.25;6.57;;;21.50;99.90;;;;;;4366261;32;20069;-68
2021/06/12 11:30:18;;;;;;;11.60;7.12;;;21.70;99.90;;;;;;4334312;32;20089;-75
2021/06/12 11:33:00;;;;;;;9.55;5.62;;;22.20;99.90;;;;;;4377228;32;20437;-73
2021/06/12 11:35:50;;;;;;;8.70;6.62;;;22.80;99.90;;;;;;4365370;32;20072;-72
2021/06/12 11:38:31;;;;;;;11.27;6.32;;;23.60;99.90;;;;;;4351220;32;20162;-70
2021/06/12 11:41:16;;;;;;;11.52;7.37;;;23.30;99.90;;;;;;4367792;32;20070;-72
2021/06/12 11:43:50;;;;;;;11.38;7.28;;;22.60;99.90;;;;;;4351517;32;20077;-72
2021/06/12 11:46:28;;;;;;;9.45;6.55;;;22.40;99.90;;;;;;4328713;32;20074;-72
2021/06/12 11:48:55;;;;;;;6.90;5.53;;;22.70;99.90;;;;;;4369998;32;20116;-73
2021/06/12 11:51:25;;;;;;;9.95;7.57;;;22.70;99.90;;;;;;4358270;32;20158;-73
2021/06/12 11:54:15;;;;;;;10.43;7.10;;;22.30;99.90;;;;;;4370584;32;20066;-75
2021/06/12 11:56:59;;;;;;;8.90;6.28;;;22.30;99.90;;;;;;4343867;32;20068;-72
2021/06/12 11:59:31;;;;;;;9.65;6.50;;;22.40;99.90;;;;;;4351965;32;20089;-72
2021/06/12 12:02:07;;;;;;;8.13;6.85;;;22.60;99.90;;;;;;4346513;32;20154;-79
2021/06/12 12:04:41;;;;;;;;;;;22.40;99.90;;;;;;4352657;32;20070;-78
2021/06/12 12:07:09;;;;;;;8.57;5.95;;;22.60;99.90;;;;;;4367235;32;19977;-77
2021/06/12 12:09:37;;;;;;;11.07;6.60;;;22.40;99.90;;;;;;4339694;32;20066;-75
2021/06/12 12:12:09;;;;;;;8.40;6.22;;;22.60;99.90;;;;;;4355298;32;20101;-79
2021/06/12 12:14:43;;;;;;;9.85;7.35;;;22.50;99.90;;;;;;4354679;32;20492;-74
2021/06/12 12:17:27;;;;;;;8.73;6.20;;;22.90;99.90;;;;;;4356758;32;20509;-77
2021/06/12 12:20:03;;;;;;;8.38;6.32;;;23.40;99.90;;;;;;4364526;32;20070;-78
2021/06/12 12:22:37;;;;;;;9.05;6.40;;;23.70;99.90;;;;;;4354189;32;20484;-77
2021/06/12 12:25:06;;;;;;;8.00;7.18;;;23.40;99.90;;;;;;4341073;32;20510;-74
2021/06/12 12:27:32;;;;;;;8.35;6.53;;;23.50;99.90;;;;;;4363684;32;20074;-77
2021/06/12 12:29:58;;;;;;;8.13;6.40;;;23.60;99.90;;;;;;4350446;32;20070;-79
2021/06/12 12:32:24;;;;;;;10.60;7.15;;;23.80;99.90;;;;;;4376126;32;20177;-78
2021/06/12 12:34:51;;;;;;;9.50;6.72;;;23.60;99.90;;;;;;4364862;32;20445;-78
2021/06/12 12:37:22;;;;;;;10.90;6.18;;;23.30;99.90;;;;;;4349753;32;20235;-76
2021/06/12 12:39:51;;;;;;;8.52;6.65;;;23.00;99.90;;;;;;4350202;32;20072;-75
2021/06/12 12:42:25;;;;;;;6.30;5.15;;;22.70;99.90;;;;;;4359071;32;20454;-74
2021/06/12 12:44:53;;;;;;;7.12;5.30;;;22.90;99.90;;;;;;4351749;32;20065;-74
2021/06/12 12:47:25;;;;;;;6.62;5.10;;;22.60;99.90;;;;;;4328420;32;20488;-73
2021/06/12 12:49:52;;;;;;;5.80;5.22;;;22.80;99.90;;;;;;4351681;32;20076;-77
2021/06/12 12:52:21;;;;;;;7.15;5.12;;;23.00;99.90;;;;;;4352325;32;20082;-77
2021/06/12 12:55:04;;;;;;;6.43;5.30;;;23.00;99.90;;;;;;4353745;32;20493;-79